Terminal Aerodrome Forecast
Issued by NWS

Current Version | Previous Version | Graphics & Text | Print | Product List | Glossary On
Versions: 1 2 3 4 5 6 7 8 9 10 11 12 13 14 15 16 17 18 19
365
FTUS41 KILN 232052 AAD
TAFLCK
TAF AMD
KLCK 232052Z 2321/2418 23008KT P6SM VCSH SCT025 BKN040
      TEMPO 2322/2324 2SM TSRA BR BKN025CB
     FM240000 26006KT P6SM VCTS BKN040CB
     FM240200 30004KT P6SM SCT080 BKN250
     FM240600 VRB03KT 5SM BR SCT250
     FM241000 VRB03KT 2SM BR SCT250
     FM241300 28005KT P6SM SCT030=

USA.gov is the U.S. government's official web portal to all federal, state and local government web resources and services.